createdAt,value
2022-08-09T00:00:00.153Z,6.50
2022-08-09T00:02:27.042Z,6.88
2022-08-09T00:05:03.664Z,7.43
2022-08-09T00:07:44.477Z,8.00
2022-08-09T00:10:14.340Z,8.18
2022-08-09T00:12:52.450Z,7.85
2022-08-09T00:15:26.378Z,10.20
2022-08-09T00:18:09.413Z,9.85
2022-08-09T00:20:42.268Z,10.23
2022-08-09T00:23:54.570Z,9.23
2022-08-09T00:26:10.897Z,9.07
2022-08-09T00:28:38.396Z,8.25
2022-08-09T00:31:30.658Z,8.77
2022-08-09T00:33:53.712Z,8.57
2022-08-09T00:36:22.293Z,8.15
2022-08-09T00:38:53.983Z,7.15
2022-08-09T00:44:11.855Z,7.55
2022-08-09T00:44:20.159Z,8.07
2022-08-09T00:46:57.600Z,7.50
2022-08-09T00:49:31.482Z,10.77
2022-08-09T00:52:02.032Z,8.45
2022-08-09T00:54:36.009Z,8.65
2022-08-09T00:57:10.208Z,8.15
2022-08-09T00:59:46.909Z,8.07
2022-08-09T01:02:22.225Z,7.43
2022-08-09T01:05:00.794Z,7.43
2022-08-09T01:08:01.443Z,7.40
2022-08-09T01:10:39.436Z,7.43
2022-08-09T01:13:41.955Z,8.40
2022-08-09T01:16:24.136Z,8.68
2022-08-09T01:19:02.038Z,9.20
2022-08-09T01:21:53.683Z,10.13
2022-08-09T01:24:35.016Z,8.77
2022-08-09T01:27:13.272Z,9.50
2022-08-09T01:29:57.625Z,9.85
2022-08-09T01:32:34.861Z,10.18
2022-08-09T01:35:29.160Z,10.77
2022-08-09T01:38:08.461Z,8.97
2022-08-09T01:40:45.101Z,7.72
2022-08-09T01:43:21.006Z,10.20
2022-08-09T01:45:53.587Z,10.90
2022-08-09T01:48:29.600Z,10.20
2022-08-09T01:50:59.255Z,10.50
2022-08-09T01:53:28.950Z,9.57
2022-08-09T01:55:57.217Z,10.80
2022-08-09T01:58:25.685Z,8.98
2022-08-09T02:00:57.234Z,9.95
2022-08-09T02:03:25.269Z,10.63
2022-08-09T02:06:06.449Z,9.48
2022-08-09T02:08:57.254Z,10.23
2022-08-09T02:11:42.126Z,9.65
2022-08-09T02:14:15.870Z,9.40
2022-08-09T02:17:00.011Z,9.63
2022-08-09T02:19:43.077Z,9.50
2022-08-09T02:22:40.773Z,8.93
2022-08-09T02:25:42.346Z,9.77
2022-08-09T02:28:20.220Z,8.20
2022-08-09T02:30:51.914Z,7.90
2022-08-09T02:33:37.772Z,8.93
2022-08-09T02:36:10.559Z,8.93
2022-08-09T02:38:47.696Z,8.73
2022-08-09T02:41:21.255Z,9.32
2022-08-09T02:43:54.784Z,9.23
2022-08-09T02:46:25.478Z,8.07
2022-08-09T02:48:57.159Z,9.68
2022-08-09T02:51:26.544Z,8.80
2022-08-09T02:54:00.928Z,9.30
2022-08-09T02:56:31.756Z,8.73
2022-08-09T02:59:01.675Z,8.75
2022-08-09T03:01:43.356Z,8.85
2022-08-09T03:04:19.795Z,8.80
2022-08-09T03:06:48.946Z,8.50
2022-08-09T03:09:16.492Z,9.20
2022-08-09T03:12:05.874Z,8.25
2022-08-09T03:14:32.905Z,7.55
2022-08-09T03:17:01.772Z,8.10
2022-08-09T03:19:59.455Z,8.50
2022-08-09T03:22:25.689Z,8.25
2022-08-09T03:25:21.972Z,8.68
2022-08-09T03:27:48.660Z,8.30
2022-08-09T03:30:29.832Z,8.63
2022-08-09T03:33:11.094Z,8.30
2022-08-09T03:36:12.491Z,8.40
2022-08-09T03:38:31.658Z,9.25
2022-08-09T03:40:58.472Z,7.50
2022-08-09T03:43:31.643Z,9.15
2022-08-09T03:46:04.165Z,9.35
2022-08-09T03:48:53.730Z,8.80
2022-08-09T03:51:43.638Z,9.18
2022-08-09T03:54:11.605Z,8.95
2022-08-09T03:56:41.219Z,10.15
2022-08-09T03:59:13.507Z,10.20
2022-08-09T04:01:44.690Z,8.45
2022-08-09T04:04:14.750Z,10.63
2022-08-09T04:06:44.053Z,8.38
2022-08-09T04:09:48.093Z,8.27
2022-08-09T04:12:12.074Z,8.63
2022-08-09T04:15:02.147Z,8.95
2022-08-09T04:17:39.383Z,7.28
2022-08-09T04:20:11.603Z,8.80
2022-08-09T04:22:41.311Z,8.35
2022-08-09T04:25:11.813Z,9.02
2022-08-09T04:27:48.840Z,8.10
2022-08-09T04:30:20.864Z,8.88
2022-08-09T04:32:50.358Z,9.70
2022-08-09T04:35:17.152Z,9.45
2022-08-09T04:37:46.262Z,9.25
2022-08-09T04:40:28.596Z,8.88
2022-08-09T04:43:00.812Z,8.00
2022-08-09T04:45:30.472Z,9.20
2022-08-09T04:48:04.038Z,8.55
2022-08-09T04:50:37.735Z,8.90
2022-08-09T04:55:57.721Z,6.43
2022-08-09T04:58:25.693Z,7.30
2022-08-09T05:00:54.425Z,7.70
2022-08-09T05:03:40.208Z,7.55
2022-08-09T05:06:09.901Z,7.38
2022-08-09T05:08:38.334Z,6.28
2022-08-09T05:11:06.783Z,7.63
2022-08-09T05:13:38.818Z,7.72
2022-08-09T05:18:50.702Z,7.78
2022-08-09T05:21:24.736Z,6.78
2022-08-09T05:23:59.988Z,7.45
2022-08-09T05:26:36.292Z,7.63
2022-08-09T05:29:04.913Z,8.23
2022-08-09T05:31:44.176Z,7.18
2022-08-09T05:34:16.827Z,6.70
2022-08-09T05:36:44.068Z,6.20
2022-08-09T05:39:14.365Z,7.30
2022-08-09T05:41:55.865Z,7.00
2022-08-09T05:44:29.092Z,6.68
2022-08-09T05:46:59.448Z,6.57
2022-08-09T05:49:33.832Z,5.80
2022-08-09T05:52:12.592Z,6.72
2022-08-09T05:54:40.235Z,7.65
2022-08-09T05:57:07.752Z,6.20
2022-08-09T05:59:39.797Z,7.40
2022-08-09T06:02:09.166Z,7.18
2022-08-09T06:04:36.834Z,7.13
2022-08-09T06:07:11.502Z,7.25
2022-08-09T06:09:54.483Z,6.53
2022-08-09T06:12:29.451Z,6.83
2022-08-09T06:15:01.021Z,7.47
2022-08-09T06:17:39.875Z,7.85
2022-08-09T06:20:07.978Z,7.20
2022-08-09T06:22:35.040Z,6.70
2022-08-09T06:25:01.861Z,7.60
2022-08-09T06:27:42.624Z,7.63
2022-08-09T06:30:10.604Z,7.28
2022-08-09T06:32:59.134Z,6.85
2022-08-09T06:35:56.059Z,6.78
2022-08-09T06:38:15.950Z,7.68
2022-08-09T06:40:43.147Z,6.82
2022-08-09T06:43:10.546Z,6.43
2022-08-09T06:46:04.662Z,6.57
2022-08-09T06:48:26.165Z,6.90
2022-08-09T06:50:58.460Z,7.53
2022-08-09T06:53:25.173Z,6.03
2022-08-09T06:55:52.636Z,5.82
2022-08-09T07:00:47.718Z,6.55
2022-08-09T07:01:06.382Z,6.78
2022-08-09T07:03:39.764Z,6.40
2022-08-09T07:06:19.603Z,6.38
2022-08-09T07:08:46.724Z,5.80
2022-08-09T07:11:23.424Z,5.75
2022-08-09T07:14:04.895Z,5.43
2022-08-09T07:16:42.046Z,5.60
2022-08-09T07:19:22.980Z,5.82
2022-08-09T07:21:57.303Z,5.65
2022-08-09T07:24:32.624Z,5.50
2022-08-09T07:27:11.146Z,5.22
2022-08-09T07:29:57.139Z,5.00
2022-08-09T07:32:33.107Z,5.55
2022-08-09T07:35:10.366Z,5.45
2022-08-09T07:37:43.370Z,5.03
2022-08-09T07:40:16.977Z,5.40
2022-08-09T07:43:02.617Z,4.68
2022-08-09T07:45:39.813Z,5.20
2022-08-09T07:48:28.365Z,5.00
2022-08-09T07:51:09.601Z,4.50
2022-08-09T07:54:05.798Z,5.35
2022-08-09T07:56:34.054Z,5.07
2022-08-09T07:59:00.664Z,5.63
2022-08-09T08:01:32.966Z,4.30
2022-08-09T08:04:01.194Z,4.90
2022-08-09T08:06:31.676Z,4.93
2022-08-09T08:09:04.863Z,4.55
2022-08-09T08:12:24.876Z,5.20
2022-08-09T08:14:18.803Z,5.32
2022-08-09T08:17:00.811Z,4.70
2022-08-09T08:19:34.754Z,4.82
2022-08-09T08:22:01.710Z,4.90
2022-08-09T08:24:39.896Z,4.88
2022-08-09T08:27:07.228Z,4.80
2022-08-09T08:29:48.535Z,4.68
2022-08-09T08:32:24.314Z,4.50
2022-08-09T08:34:58.877Z,4.90
2022-08-09T08:37:41.689Z,5.05
2022-08-09T08:40:14.380Z,4.85
2022-08-09T08:42:47.048Z,5.43
2022-08-09T08:45:16.593Z,4.95
2022-08-09T08:47:45.765Z,5.22
2022-08-09T08:50:18.093Z,5.45
2022-08-09T08:52:57.532Z,4.97
2022-08-09T08:55:26.777Z,5.05
2022-08-09T08:57:56.750Z,4.80
2022-08-09T09:00:27.713Z,5.35
2022-08-09T09:03:08.180Z,4.70
2022-08-09T09:05:59.636Z,4.88
2022-08-09T09:08:30.562Z,4.65
2022-08-09T09:11:01.361Z,5.13
2022-08-09T09:13:41.615Z,4.97
2022-08-09T09:16:13.905Z,5.10
2022-08-09T09:18:45.806Z,4.78
2022-08-09T09:21:16.335Z,5.10
2022-08-09T09:23:58.074Z,5.07
2022-08-09T09:26:25.962Z,4.60
2022-08-09T09:29:04.300Z,4.85
2022-08-09T09:32:04.600Z,4.90
2022-08-09T09:34:25.216Z,7.70
2022-08-09T09:36:56.487Z,5.32
2022-08-09T09:39:25.764Z,5.07
2022-08-09T09:42:26.001Z,4.85
2022-08-09T09:45:01.162Z,4.78
2022-08-09T09:47:30.402Z,5.03
2022-08-09T09:50:15.447Z,6.60
2022-08-09T09:52:53.842Z,4.85
2022-08-09T09:55:28.407Z,4.90
2022-08-09T09:58:16.879Z,5.00
2022-08-09T10:00:54.298Z,4.80
2022-08-09T10:03:57.337Z,5.03
2022-08-09T10:06:42.975Z,5.18
2022-08-09T10:09:22.301Z,4.88
2022-08-09T10:12:15.081Z,4.78
2022-08-09T10:14:51.314Z,4.70
2022-08-09T10:17:40.721Z,5.30
2022-08-09T10:20:27.723Z,5.13
2022-08-09T10:23:24.923Z,4.65
2022-08-09T10:26:08.202Z,4.75
2022-08-09T10:28:39.876Z,4.38
2022-08-09T10:34:10.594Z,3.88
2022-08-09T10:36:42.990Z,3.55
2022-08-09T10:39:16.200Z,4.20
2022-08-09T10:41:47.908Z,4.45
2022-08-09T10:44:19.287Z,4.15
2022-08-09T10:48:14.241Z,3.72
2022-08-09T10:50:51.949Z,3.97
2022-08-09T10:53:37.894Z,4.03
2022-08-09T10:56:22.944Z,4.00
2022-08-09T10:58:54.610Z,4.50
2022-08-09T11:03:14.819Z,3.78
2022-08-09T11:04:30.922Z,3.88
2022-08-09T11:07:00.283Z,4.15
2022-08-09T11:09:45.331Z,3.80
2022-08-09T11:12:17.098Z,4.15
2022-08-09T11:14:48.609Z,4.20
2022-08-09T11:17:15.085Z,3.60
2022-08-09T11:20:11.425Z,4.32
2022-08-09T11:22:45.509Z,3.90
2022-08-09T11:25:44.498Z,3.63
2022-08-09T11:28:34.490Z,4.75
2022-08-09T11:31:39.736Z,3.88
2022-08-09T11:34:17.662Z,4.45
2022-08-09T11:36:45.544Z,4.47
2022-08-09T11:39:12.245Z,4.60
2022-08-09T11:41:40.688Z,4.07
2022-08-09T11:44:08.410Z,4.53
2022-08-09T11:46:52.725Z,4.03
2022-08-09T11:49:28.297Z,4.57
2022-08-09T11:52:56.478Z,4.13
2022-08-09T11:55:39.955Z,4.15
2022-08-09T11:58:20.142Z,3.92
2022-08-09T12:01:08.743Z,3.53
2022-08-09T12:03:57.385Z,4.10
2022-08-09T12:06:32.213Z,4.15
2022-08-09T12:09:02.535Z,3.80
2022-08-09T12:11:29.372Z,3.45
2022-08-09T12:14:08.502Z,3.80
2022-08-09T12:16:40.263Z,3.90
2022-08-09T12:19:09.661Z,3.70
2022-08-09T12:21:51.497Z,3.80
2022-08-09T12:24:24.255Z,4.20
2022-08-09T12:28:59.123Z,4.35
2022-08-09T12:30:01.771Z,4.60
2022-08-09T12:32:41.028Z,4.35
2022-08-09T12:35:12.638Z,4.40
2022-08-09T12:37:50.069Z,4.60
2022-08-09T12:40:18.905Z,4.18
2022-08-09T12:42:46.397Z,4.20
2022-08-09T12:45:32.356Z,3.75
2022-08-09T12:48:02.797Z,4.18
2022-08-09T12:50:29.494Z,4.25
2022-08-09T12:53:09.627Z,4.13
2022-08-09T12:56:16.166Z,4.05
2022-08-09T12:58:29.214Z,3.88
2022-08-09T13:00:57.687Z,4.53
2022-08-09T13:03:53.060Z,4.10
2022-08-09T13:06:34.807Z,4.15
2022-08-09T13:09:18.080Z,4.32
2022-08-09T13:11:47.352Z,4.03
2022-08-09T13:14:43.665Z,3.60
2022-08-09T13:17:14.114Z,3.95
2022-08-09T13:20:07.027Z,4.03
2022-08-09T13:23:01.888Z,3.80
2022-08-09T13:25:20.539Z,4.10
2022-08-09T13:27:54.335Z,4.10
2022-08-09T13:31:11.721Z,3.95
2022-08-09T13:33:11.416Z,4.38
2022-08-09T13:36:39.552Z,4.40
2022-08-09T13:38:54.554Z,3.75
2022-08-09T13:41:46.385Z,4.03
2022-08-09T13:43:58.572Z,4.20
2022-08-09T13:47:16.612Z,4.07
2022-08-09T13:49:18.133Z,4.07
2022-08-09T13:51:58.829Z,3.70
2022-08-09T13:54:30.331Z,3.78
2022-08-09T13:56:57.551Z,3.63
2022-08-09T13:59:25.664Z,4.30
2022-08-09T14:02:00.764Z,4.22
2022-08-09T14:04:29.531Z,4.00
2022-08-09T14:07:03.625Z,3.80
2022-08-09T14:09:30.872Z,4.30
2022-08-09T14:12:04.582Z,4.03
2022-08-09T14:14:41.896Z,4.18
2022-08-09T14:17:12.130Z,4.95
2022-08-09T14:19:39.251Z,4.40
2022-08-09T14:22:07.289Z,4.10
2022-08-09T14:24:35.759Z,4.60
2022-08-09T14:27:19.901Z,4.50
2022-08-09T14:30:34.905Z,4.20
2022-08-09T14:32:34.437Z,4.45
2022-08-09T14:35:06.373Z,4.60
2022-08-09T14:37:41.288Z,4.10
2022-08-09T14:40:19.419Z,4.80
2022-08-09T14:43:05.756Z,3.95
2022-08-09T14:46:55.117Z,4.03
2022-08-09T14:48:18.853Z,4.15
2022-08-09T14:50:47.419Z,4.60
2022-08-09T14:53:14.826Z,4.30
2022-08-09T14:55:50.299Z,4.85
2022-08-09T14:58:17.466Z,3.83
2022-08-09T15:00:48.641Z,4.75
2022-08-09T15:03:20.105Z,4.38
2022-08-09T15:05:50.486Z,4.35
2022-08-09T15:08:23.864Z,4.43
2022-08-09T15:11:00.469Z,4.80
2022-08-09T15:13:29.920Z,4.80
2022-08-09T15:16:15.076Z,4.70
2022-08-09T15:18:41.701Z,4.50
2022-08-09T15:21:55.400Z,4.72
2022-08-09T15:24:09.098Z,4.68
2022-08-09T15:26:45.927Z,3.72
2022-08-09T15:30:58.488Z,4.22
2022-08-09T15:31:59.654Z,4.15
2022-08-09T15:34:34.434Z,3.65
2022-08-09T15:37:04.092Z,3.80
2022-08-09T15:39:34.748Z,3.63
2022-08-09T15:42:10.441Z,4.18
2022-08-09T15:44:37.743Z,3.90
2022-08-09T15:47:05.344Z,4.00
2022-08-09T15:49:31.886Z,4.05
2022-08-09T15:52:04.438Z,4.25
2022-08-09T15:54:44.282Z,4.05
2022-08-09T15:57:13.356Z,3.83
2022-08-09T15:59:40.121Z,4.07
2022-08-09T16:02:08.959Z,4.35
2022-08-09T16:04:40.174Z,4.40
2022-08-09T16:07:09.695Z,4.15
2022-08-09T16:10:02.545Z,4.30
2022-08-09T16:12:26.328Z,4.25
2022-08-09T16:14:57.785Z,4.63
2022-08-09T16:17:24.371Z,4.90
2022-08-09T16:22:32.648Z,4.72
2022-08-09T16:25:01.487Z,4.30
2022-08-09T16:27:29.641Z,4.40
2022-08-09T16:30:00.722Z,5.07
2022-08-09T16:32:53.444Z,4.60
2022-08-09T16:35:56.775Z,4.45
2022-08-09T16:38:09.443Z,4.43
2022-08-09T16:40:40.491Z,4.80
2022-08-09T16:43:08.263Z,5.03
2022-08-09T16:45:35.101Z,4.82
2022-08-09T16:48:39.466Z,4.57
2022-08-09T16:50:59.588Z,4.38
2022-08-09T16:53:34.716Z,4.68
2022-08-09T16:56:04.831Z,4.57
2022-08-09T16:58:36.120Z,4.57
2022-08-09T17:01:04.548Z,5.00
2022-08-09T17:03:31.636Z,4.70
2022-08-09T17:06:03.508Z,4.57
2022-08-09T17:08:42.959Z,4.65
2022-08-09T17:11:24.629Z,4.55
2022-08-09T17:14:01.621Z,4.60
2022-08-09T17:16:28.699Z,4.55
2022-08-09T17:18:55.365Z,4.97
2022-08-09T17:21:22.107Z,4.30
2022-08-09T17:24:20.835Z,4.82
2022-08-09T17:26:38.018Z,4.78
2022-08-09T17:29:05.203Z,4.50
2022-08-09T17:31:38.986Z,4.43
2022-08-09T17:34:20.356Z,4.72
2022-08-09T17:36:53.992Z,4.50
2022-08-09T17:39:24.907Z,4.50
2022-08-09T17:41:51.869Z,4.30
2022-08-09T17:44:47.146Z,4.57
2022-08-09T17:47:06.111Z,4.40
2022-08-09T17:49:37.350Z,4.38
2022-08-09T17:52:32.576Z,4.05
2022-08-09T17:54:59.272Z,4.95
2022-08-09T17:58:02.547Z,4.05
2022-08-09T18:00:13.545Z,4.38
2022-08-09T18:02:40.404Z,4.50
2022-08-09T18:05:17.058Z,4.40
2022-08-09T18:07:48.620Z,4.53
2022-08-09T18:10:15.423Z,4.40
2022-08-09T18:13:43.682Z,4.40
2022-08-09T18:16:05.371Z,4.20
2022-08-09T18:18:25.410Z,4.65
2022-08-09T18:21:10.479Z,4.30
2022-08-09T18:24:11.959Z,4.30
2022-08-09T18:26:25.970Z,3.97
2022-08-09T18:30:40.189Z,4.20
2022-08-09T18:31:51.263Z,4.53
2022-08-09T18:34:23.894Z,4.30
2022-08-09T18:36:50.952Z,4.05
2022-08-09T18:39:22.181Z,4.18
2022-08-09T18:41:53.000Z,4.10
2022-08-09T18:44:19.976Z,4.57
2022-08-09T18:47:06.466Z,4.40
2022-08-09T18:49:46.190Z,4.03
2022-08-09T18:52:14.350Z,4.25
2022-08-09T18:54:52.253Z,3.97
2022-08-09T18:57:22.116Z,4.20
2022-08-09T18:59:57.831Z,4.10
2022-08-09T19:02:31.747Z,4.35
2022-08-09T19:05:03.860Z,4.93
2022-08-09T19:07:51.543Z,4.22
2022-08-09T19:10:28.945Z,4.28
2022-08-09T19:13:23.632Z,4.65
2022-08-09T19:15:56.306Z,4.10
2022-08-09T19:18:33.098Z,4.32
2022-08-09T19:21:03.435Z,4.07
2022-08-09T19:24:31.471Z,4.55
2022-08-09T19:26:19.217Z,4.40
2022-08-09T19:28:57.318Z,4.45
2022-08-09T19:31:30.797Z,4.50
2022-08-09T19:34:22.341Z,4.18
2022-08-09T19:36:53.990Z,5.07
2022-08-09T19:39:28.872Z,4.63
2022-08-09T19:41:55.912Z,4.28
2022-08-09T19:44:23.081Z,4.10
2022-08-09T19:46:53.234Z,4.18
2022-08-09T19:50:08.425Z,4.25
2022-08-09T19:52:08.627Z,5.00
2022-08-09T19:54:35.600Z,4.57
2022-08-09T19:57:02.383Z,4.90
2022-08-09T19:59:59.735Z,5.10
2022-08-09T20:04:07.162Z,5.07
2022-08-09T20:05:10.299Z,4.60
2022-08-09T20:07:59.500Z,4.68
2022-08-09T20:10:36.503Z,4.80
2022-08-09T20:13:05.518Z,4.60
2022-08-09T20:16:34.089Z,5.03
2022-08-09T20:18:20.122Z,4.63
2022-08-09T20:20:50.340Z,4.75
2022-08-09T20:23:19.454Z,4.25
2022-08-09T20:25:52.049Z,4.07
2022-08-09T20:28:27.415Z,5.28
2022-08-09T20:31:01.003Z,4.90
2022-08-09T20:33:39.038Z,4.65
2022-08-09T20:36:08.443Z,4.70
2022-08-09T20:38:55.716Z,4.25
2022-08-09T20:41:29.247Z,4.80
2022-08-09T20:44:02.265Z,5.03
2022-08-09T20:46:42.728Z,5.00
2022-08-09T20:49:16.142Z,4.80
2022-08-09T20:51:44.268Z,4.65
2022-08-09T20:54:16.442Z,4.90
2022-08-09T20:56:49.537Z,4.57
2022-08-09T21:00:19.637Z,4.40
2022-08-09T21:02:08.087Z,5.05
2022-08-09T21:05:53.879Z,4.57
2022-08-09T21:07:21.288Z,4.05
2022-08-09T21:09:58.365Z,4.70
2022-08-09T21:15:17.493Z,5.20
2022-08-09T21:18:24.668Z,5.32
2022-08-09T21:20:37.094Z,4.85
2022-08-09T21:23:09.305Z,5.07
2022-08-09T21:25:55.815Z,4.70
2022-08-09T21:28:35.057Z,5.32
2022-08-09T21:31:17.856Z,5.05
2022-08-09T21:33:52.549Z,4.88
2022-08-09T21:36:25.749Z,5.47
2022-08-09T21:38:57.675Z,5.32
2022-08-09T21:42:06.100Z,4.93
2022-08-09T21:44:15.265Z,4.97
2022-08-09T21:46:59.711Z,4.78
2022-08-09T21:49:26.307Z,5.10
2022-08-09T21:51:53.496Z,5.40
2022-08-09T21:54:21.231Z,4.93
2022-08-09T21:56:54.409Z,5.30
2022-08-09T21:59:23.221Z,5.07
2022-08-09T22:01:59.448Z,4.50
2022-08-09T22:04:33.577Z,5.30
2022-08-09T22:07:35.472Z,5.00
2022-08-09T22:10:02.178Z,5.38
2022-08-09T22:12:30.470Z,5.18
2022-08-09T22:14:57.911Z,4.75
2022-08-09T22:17:24.501Z,5.25
2022-08-09T22:19:58.492Z,5.28
2022-08-09T22:22:28.929Z,5.40
2022-08-09T22:26:07.324Z,5.10
2022-08-09T22:27:42.165Z,5.38
2022-08-09T22:30:09.792Z,5.05
2022-08-09T22:32:37.588Z,4.80
2022-08-09T22:35:59.731Z,5.60
2022-08-09T22:38:06.587Z,4.82
2022-08-09T22:40:34.875Z,5.60
2022-08-09T22:43:01.459Z,5.55
2022-08-09T22:48:16.874Z,5.18
2022-08-09T22:48:35.522Z,5.88
2022-08-09T22:51:10.669Z,6.22
2022-08-09T22:53:58.090Z,5.68
2022-08-09T22:56:30.653Z,6.05
2022-08-09T22:59:05.736Z,5.80
2022-08-09T23:01:48.471Z,5.75
2022-08-09T23:04:15.113Z,5.68
2022-08-09T23:07:01.595Z,5.30
2022-08-09T23:09:28.129Z,5.10
2022-08-09T23:11:54.991Z,5.65
2022-08-09T23:14:30.254Z,5.10
2022-08-09T23:17:08.210Z,5.60
2022-08-09T23:20:06.771Z,5.28
2022-08-09T23:22:21.655Z,5.68
2022-08-09T23:24:48.837Z,5.63
2022-08-09T23:27:15.804Z,5.40
2022-08-09T23:29:42.468Z,5.25
2022-08-09T23:32:09.157Z,5.40
2022-08-09T23:34:36.718Z,5.00
2022-08-09T23:37:04.757Z,4.80
2022-08-09T23:39:31.797Z,5.68
2022-08-09T23:41:58.515Z,6.55
2022-08-09T23:44:25.075Z,5.93
2022-08-09T23:46:55.951Z,5.70
2022-08-09T23:49:25.250Z,5.13
2022-08-09T23:51:53.068Z,5.18
2022-08-09T23:54:20.345Z,5.30
2022-08-09T23:56:54.917Z,5.30
2022-08-09T23:59:24.266Z,4.85
